Terminal Aerodrome Forecast
Issued by NWS

Home | Current Version | Previous Version | Text Only | Print | Product List | Glossary On
Versions: 1 2 3 4 5 6 7 8 9 10 11 12 13 14 15 16 17 18 19 20 21
000
FTUS43 KGRR 281600 AAA
TAFMKG
TAF AMD
KMKG 281606Z 2816/0112 19006KT P6SM BKN025
      TEMPO 2816/2818 4SM -SN
     FM281800 20008KT P6SM SCT025
     FM010400 18008KT 5SM -SN OVC025=

USA.gov is the U.S. government's official web portal to all federal, state and local government web resources and services.